Time;durP1;ratioP1;P1;durP2;ratioP2;P2;SDS_P1;SDS_P2;PMS_P1;PMS_P2;Temp;Humidity;BMP_temperature;BMP_pressure;BME280_temperature;BME280_humidity;BME280_pressure;Samples;Min_cycle;Max_cycle;Signal;HPM_P1;HPM_P2
2021/05/15 00:00:48;;;;;;;1.80;0.70;;;;;;;11.73;75.20;98065.56;4889996;28;103359;-77
2021/05/15 00:03:15;;;;;;;1.27;0.70;;;;;;;11.72;75.17;98061.22;4891223;28;102925;-77
2021/05/15 00:05:41;;;;;;;0.70;0.60;;;;;;;11.77;74.79;98066.94;4890910;28;102893;-77
2021/05/15 00:08:08;;;;;;;0.60;0.60;;;;;;;11.75;75.38;98065.41;4889408;28;104605;-77
2021/05/15 00:10:34;;;;;;;1.00;0.90;;;;;;;11.70;75.68;98071.09;4890623;28;104035;-77
2021/05/15 00:13:00;;;;;;;1.00;0.70;;;;;;;11.71;75.24;98072.75;4889354;28;103030;-76
2021/05/15 00:15:27;;;;;;;0.93;0.70;;;;;;;11.57;76.35;98070.44;4879025;28;103183;-77
2021/05/15 00:17:54;;;;;;;1.20;0.60;;;;;;;11.60;75.64;98063.09;4871507;28;103366;-76
2021/05/15 00:20:22;;;;;;;1.07;0.70;;;;;;;11.34;77.22;98066.31;4870820;28;103697;-77
2021/05/15 00:22:48;;;;;;;1.13;0.70;;;;;;;11.09;78.12;98064.88;4874072;28;103411;-76
2021/05/15 00:25:17;;;;;;;0.83;0.70;;;;;;;11.13;77.94;98055.72;4888925;28;102954;-77
2021/05/15 00:27:44;;;;;;;2.23;0.90;;;;;;;11.00;79.16;98063.84;4890283;28;103758;-76
2021/05/15 00:30:12;;;;;;;0.80;0.70;;;;;;;11.17;77.98;98058.97;4881350;28;104260;-76
2021/05/15 00:32:39;;;;;;;0.97;0.80;;;;;;;11.19;77.82;98057.00;4885543;28;103034;-76
2021/05/15 00:35:07;;;;;;;1.57;0.83;;;;;;;11.24;77.74;98060.94;4869689;28;103212;-76
2021/05/15 00:37:35;;;;;;;1.70;0.80;;;;;;;11.21;78.27;98060.34;4869284;28;105561;-76
2021/05/15 00:40:01;;;;;;;0.90;0.60;;;;;;;11.10;78.50;98048.06;4871274;28;103199;-76
2021/05/15 00:42:28;;;;;;;1.37;0.63;;;;;;;11.11;78.14;98052.38;4874381;28;102972;-76
2021/05/15 00:44:54;;;;;;;0.93;0.70;;;;;;;10.83;79.58;98056.50;4890557;28;103091;-76
2021/05/15 00:47:22;;;;;;;0.90;0.80;;;;;;;10.65;80.34;98050.09;4880876;28;104195;-76
2021/05/15 00:49:50;;;;;;;1.07;0.77;;;;;;;10.55;80.55;98043.91;4878951;28;103215;-76
2021/05/15 00:52:17;;;;;;;1.87;1.00;;;;;;;10.66;80.13;98048.28;4889846;28;103016;-77
2021/05/15 00:54:46;;;;;;;0.90;0.80;;;;;;;10.69;80.34;98048.03;4888748;28;103279;-76
2021/05/15 00:57:13;;;;;;;0.80;0.77;;;;;;;10.70;80.04;98045.25;4886349;28;103880;-76
2021/05/15 00:59:40;;;;;;;2.13;1.10;;;;;;;10.40;81.47;98038.06;4884508;28;103745;-76
2021/05/15 01:02:10;;;;;;;1.10;0.80;;;;;;;10.29;81.31;98040.75;4879593;28;103070;-76
2021/05/15 01:04:36;;;;;;;0.93;0.70;;;;;;;10.35;81.06;98044.69;4886962;28;103025;-75
2021/05/15 01:07:04;;;;;;;1.00;0.83;;;;;;;10.31;81.69;98048.53;4884597;28;103994;-77
2021/05/15 01:09:30;;;;;;;0.97;0.73;;;;;;;9.91;83.00;98043.78;4889390;28;103216;-75
2021/05/15 01:11:57;;;;;;;0.80;0.70;;;;;;;10.18;82.47;98047.84;4885984;28;102960;-76
2021/05/15 01:14:24;;;;;;;1.57;0.90;;;;;;;9.76;84.16;98041.53;4887579;28;102906;-77
2021/05/15 01:16:50;;;;;;;3.07;0.70;;;;;;;9.99;83.35;98045.00;4889379;28;103214;-76
2021/05/15 01:19:17;;;;;;;0.63;0.63;;;;;;;10.12;81.32;98043.03;4886335;28;103780;-76
2021/05/15 01:21:44;;;;;;;1.27;0.80;;;;;;;10.34;79.72;98040.38;4889813;28;102480;-75
2021/05/15 01:24:11;;;;;;;0.70;0.60;;;;;;;10.40;79.15;98042.50;4889609;28;103107;-76
2021/05/15 01:26:37;;;;;;;0.63;0.60;;;;;;;10.24;80.46;98042.09;4887174;28;103893;-76
2021/05/15 01:29:06;;;;;;;1.57;0.93;;;;;;;10.25;79.88;98038.47;4889305;28;103725;-77
2021/05/15 01:31:34;;;;;;;0.80;0.60;;;;;;;10.05;80.35;98041.88;4884277;28;103073;-76
2021/05/15 01:34:02;;;;;;;0.97;0.73;;;;;;;10.21;79.91;98043.19;4883611;28;103164;-78
2021/05/15 01:36:29;;;;;;;0.87;0.70;;;;;;;10.33;78.89;98042.16;4880932;28;104627;-76
2021/05/15 01:38:56;;;;;;;0.70;0.60;;;;;;;10.42;78.33;98035.28;4888792;28;103127;-77
2021/05/15 01:41:22;;;;;;;3.33;0.93;;;;;;;10.45;78.21;98035.03;4888775;28;102830;-76
2021/05/15 01:43:49;;;;;;;0.80;0.70;;;;;;;10.47;78.20;98035.75;4889985;28;103083;-76
2021/05/15 01:46:15;;;;;;;1.30;0.60;;;;;;;10.56;77.11;98031.50;4868853;28;103910;-76
2021/05/15 01:48:42;;;;;;;0.70;0.70;;;;;;;10.62;77.09;98026.56;4881821;28;111115;-76
2021/05/15 01:51:11;;;;;;;2.00;0.70;;;;;;;10.57;76.46;98034.03;4888037;28;102631;-77
2021/05/15 01:53:40;;;;;;;1.00;0.70;;;;;;;10.64;76.68;98035.19;4887742;28;103214;-77
2021/05/15 01:56:09;;;;;;;1.10;0.63;;;;;;;10.66;76.46;98028.00;4887153;28;105164;-76
2021/05/15 01:58:36;;;;;;;0.63;0.50;;;;;;;10.62;76.56;98031.84;4882827;28;104956;-76
2021/05/15 02:01:03;;;;;;;1.93;0.70;;;;;;;10.64;76.27;98035.19;4885693;28;102884;-76
2021/05/15 02:03:30;;;;;;;1.97;0.90;;;;;;;10.59;76.87;98028.63;4888749;28;103105;-76
2021/05/15 02:05:57;;;;;;;1.20;0.70;;;;;;;10.66;76.06;98033.28;4880439;28;103252;-76
2021/05/15 02:08:24;;;;;;;0.90;0.70;;;;;;;10.67;76.39;98029.66;4887975;28;103892;-76
2021/05/15 02:10:51;;;;;;;0.87;0.63;;;;;;;10.59;76.49;98025.97;4887075;28;102582;-76
2021/05/15 02:13:19;;;;;;;0.50;0.50;;;;;;;10.66;76.43;98025.38;4888780;28;104493;-77
2021/05/15 02:15:47;;;;;;;0.87;0.67;;;;;;;10.57;76.75;98023.47;4887008;28;104984;-77
2021/05/15 02:18:15;;;;;;;0.60;0.50;;;;;;;10.64;76.81;98014.06;4888409;28;103279;-77
2021/05/15 02:20:43;;;;;;;1.23;0.67;;;;;;;10.67;76.67;98021.75;4888742;28;102993;-76
2021/05/15 02:23:11;;;;;;;0.70;0.70;;;;;;;10.70;76.33;98013.56;4877428;28;104109;-77
2021/05/15 02:25:38;;;;;;;0.60;0.60;;;;;;;10.74;76.62;98014.16;4886697;28;103270;-77
2021/05/15 02:28:05;;;;;;;1.80;0.60;;;;;;;10.67;76.82;98015.59;4886552;28;103851;-77
2021/05/15 02:30:33;;;;;;;1.00;0.70;;;;;;;10.56;77.48;98008.59;4888889;28;103252;-77
2021/05/15 02:33:00;;;;;;;0.80;0.60;;;;;;;10.49;77.78;98010.06;4886895;28;103039;-77
2021/05/15 02:35:27;;;;;;;1.17;0.80;;;;;;;10.30;79.37;98002.00;4876251;28;103957;-76
2021/05/15 02:37:54;;;;;;;1.10;0.90;;;;;;;10.27;79.24;98000.41;4883072;28;103804;-76
2021/05/15 02:40:21;;;;;;;1.00;0.60;;;;;;;10.19;79.79;98002.03;4887260;28;102880;-76
2021/05/15 02:42:49;;;;;;;1.07;0.60;;;;;;;10.34;78.93;97990.19;4888509;28;103137;-76
2021/05/15 02:45:17;;;;;;;0.83;0.60;;;;;;;10.40;77.95;97992.34;4888080;28;103624;-77
2021/05/15 02:47:44;;;;;;;2.83;0.70;;;;;;;10.25;79.62;97985.66;4883270;28;103742;-77
2021/05/15 02:50:13;;;;;;;1.43;0.60;;;;;;;10.22;78.91;97985.91;4882758;28;103157;-76
2021/05/15 02:52:40;;;;;;;0.77;0.60;;;;;;;10.24;78.94;97990.13;4886318;28;102989;-77
2021/05/15 02:55:09;;;;;;;1.30;0.83;;;;;;;10.32;78.72;97998.25;4878366;28;103607;-76
2021/05/15 02:57:36;;;;;;;0.60;0.60;;;;;;;10.28;78.95;97995.97;4884280;28;106433;-76
2021/05/15 03:00:05;;;;;;;1.00;0.70;;;;;;;10.21;79.50;97989.53;4888261;28;102537;-76
2021/05/15 03:02:31;;;;;;;1.97;0.67;;;;;;;10.21;79.67;97992.19;4887534;28;102698;-77
2021/05/15 03:04:58;;;;;;;1.23;0.80;;;;;;;10.16;79.81;97991.72;4886862;28;103657;-76
2021/05/15 03:07:25;;;;;;;2.57;0.90;;;;;;;9.96;80.78;97984.56;4887256;28;104179;-77
2021/05/15 03:09:51;;;;;;;0.73;0.70;;;;;;;9.87;81.01;97980.84;4884467;28;102824;-77
2021/05/15 03:12:18;;;;;;;1.93;0.83;;;;;;;9.83;81.32;97980.25;4885469;28;103153;-77
2021/05/15 03:14:44;;;;;;;1.57;0.77;;;;;;;9.91;80.85;97987.53;4884670;28;104860;-77
2021/05/15 03:17:11;;;;;;;1.67;0.77;;;;;;;9.83;80.98;97985.53;4888072;28;104415;-76
2021/05/15 03:19:37;;;;;;;0.60;0.50;;;;;;;9.87;81.14;97992.25;4887629;28;102905;-77
2021/05/15 03:22:04;;;;;;;1.27;0.87;;;;;;;9.76;81.29;97994.91;4888639;28;103173;-76
2021/05/15 03:24:31;;;;;;;1.93;0.60;;;;;;;9.67;82.13;97995.63;4884118;28;103948;-77
2021/05/15 03:26:58;;;;;;;2.33;0.83;;;;;;;9.66;82.08;98001.84;4877654;28;103736;-77
2021/05/15 03:29:24;;;;;;;1.40;0.90;;;;;;;9.70;82.19;97998.03;4870960;28;102530;-77
2021/05/15 03:31:51;;;;;;;1.27;0.70;;;;;;;9.62;82.23;97996.97;4886853;28;103201;-77
2021/05/15 03:34:17;;;;;;;1.43;0.67;;;;;;;9.63;82.52;97996.81;4881415;28;104991;-76
2021/05/15 03:36:43;;;;;;;0.77;0.70;;;;;;;9.70;82.76;97991.91;4882071;28;103274;-77
2021/05/15 03:39:17;;;;;;;2.17;0.70;;;;;;;9.79;81.77;97993.81;4886208;28;102634;-77
2021/05/15 03:41:43;;;;;;;1.90;0.80;;;;;;;9.74;82.21;97991.53;4883379;28;103485;-76
2021/05/15 03:44:10;;;;;;;0.73;0.70;;;;;;;9.85;81.57;97996.78;4887250;28;105940;-77
2021/05/15 03:46:36;;;;;;;0.67;0.60;;;;;;;9.86;81.79;97997.63;4886101;28;103149;-77
2021/05/15 03:49:03;;;;;;;1.53;0.73;;;;;;;9.89;82.02;97995.59;4887087;28;103041;-77
2021/05/15 03:51:30;;;;;;;0.87;0.50;;;;;;;9.87;82.15;97991.41;4885747;28;102930;-78
2021/05/15 03:53:56;;;;;;;1.53;0.80;;;;;;;9.78;82.88;97987.69;4885511;28;103146;-77
2021/05/15 03:56:23;;;;;;;0.93;0.70;;;;;;;9.80;82.79;97991.03;4886100;28;103862;-77
2021/05/15 03:58:50;;;;;;;0.70;0.60;;;;;;;9.79;82.91;97997.31;4884673;28;103181;-77
2021/05/15 04:01:16;;;;;;;1.77;0.87;;;;;;;9.83;82.94;97993.44;4887912;28;102854;-76
2021/05/15 04:03:42;;;;;;;0.90;0.70;;;;;;;9.96;82.44;97989.81;4887057;28;103971;-77
2021/05/15 04:06:09;;;;;;;0.73;0.50;;;;;;;9.94;82.55;97992.56;4887337;28;103728;-76
2021/05/15 04:08:35;;;;;;;0.60;0.60;;;;;;;10.02;83.00;97989.34;4886744;28;102890;-77
2021/05/15 04:11:02;;;;;;;0.80;0.70;;;;;;;10.17;81.71;97998.66;4884084;28;104238;-77
2021/05/15 04:13:34;;;;;;;1.20;0.70;;;;;;;10.16;82.47;97991.72;4880430;28;104615;-81
2021/05/15 04:16:02;;;;;;;0.70;0.60;;;;;;;10.23;81.85;98004.28;4871566;28;103755;-77
2021/05/15 04:18:30;;;;;;;0.80;0.63;;;;;;;10.27;82.06;97995.13;4872761;28;103033;-77
2021/05/15 04:20:57;;;;;;;0.70;0.60;;;;;;;10.36;80.66;97994.38;4890309;28;102898;-77
2021/05/15 04:23:24;;;;;;;0.50;0.50;;;;;;;10.42;80.53;97985.97;4890382;28;105228;-79
2021/05/15 04:25:51;;;;;;;1.30;0.70;;;;;;;10.38;80.51;97994.28;4889484;28;103725;-77
2021/05/15 04:28:17;;;;;;;0.67;0.67;;;;;;;10.49;79.87;97988.94;4875573;28;103466;-77
2021/05/15 04:30:45;;;;;;;1.60;0.73;;;;;;;10.54;80.20;97986.75;4889806;28;103150;-77
2021/05/15 04:33:11;;;;;;;1.63;0.70;;;;;;;10.52;80.23;97988.69;4890679;28;103223;-77
2021/05/15 04:35:38;;;;;;;0.83;0.63;;;;;;;10.62;79.83;97986.09;4884899;28;103614;-77
2021/05/15 04:38:06;;;;;;;0.90;0.73;;;;;;;10.52;79.87;97983.41;4889904;28;102566;-77
2021/05/15 04:40:32;;;;;;;1.40;0.73;;;;;;;10.64;79.80;97985.00;4889984;28;103156;-77
2021/05/15 04:43:00;;;;;;;0.80;0.80;;;;;;;10.73;78.96;97978.13;4888905;28;103757;-76
2021/05/15 04:45:29;;;;;;;0.80;0.80;;;;;;;10.84;78.76;97984.19;4892975;28;103700;-78
2021/05/15 04:47:57;;;;;;;1.90;0.70;;;;;;;10.76;78.69;97984.00;4889935;28;102966;-77
2021/05/15 04:50:23;;;;;;;1.73;0.83;;;;;;;10.85;78.56;97991.16;4888178;28;102951;-77
2021/05/15 04:52:51;;;;;;;1.43;0.77;;;;;;;10.92;78.10;97991.44;4889567;28;104858;-77
2021/05/15 04:55:18;;;;;;;1.30;0.80;;;;;;;11.01;77.72;98002.09;4889965;28;106914;-75
2021/05/15 04:57:44;;;;;;;1.23;0.87;;;;;;;11.06;77.48;97999.03;4889544;28;103106;-75
2021/05/15 05:00:12;;;;;;;2.60;0.80;;;;;;;10.98;77.83;97997.06;4883940;28;103106;-75
2021/05/15 05:02:38;;;;;;;0.73;0.70;;;;;;;10.95;78.01;97997.31;4890402;28;103218;-76
2021/05/15 05:05:07;;;;;;;1.90;0.90;;;;;;;11.00;77.49;98000.41;4889922;28;106798;-77
2021/05/15 05:07:33;;;;;;;0.60;0.60;;;;;;;10.96;77.69;97993.72;4886678;28;103130;-76
2021/05/15 05:10:00;;;;;;;1.23;0.80;;;;;;;11.14;77.19;97995.75;4885874;28;103131;-77
2021/05/15 05:12:26;;;;;;;1.40;0.70;;;;;;;11.18;77.41;97991.88;4890280;28;103763;-77
2021/05/15 05:14:53;;;;;;;2.40;1.00;;;;;;;11.31;76.70;97995.16;4891192;28;103711;-77
2021/05/15 05:17:19;;;;;;;1.20;0.90;;;;;;;11.44;76.81;98001.06;4880670;28;102828;-77
2021/05/15 05:19:45;;;;;;;1.10;0.67;;;;;;;11.60;76.45;97993.44;4875132;28;103762;-78
2021/05/15 05:22:13;;;;;;;1.80;0.70;;;;;;;11.73;75.40;97994.09;4887091;28;103143;-77
2021/05/15 05:24:40;;;;;;;0.90;0.70;;;;;;;11.66;75.65;97987.63;4888120;28;103805;-78
2021/05/15 05:27:09;;;;;;;0.93;0.60;;;;;;;11.70;75.56;97986.44;4879735;28;102910;-79
2021/05/15 05:29:35;;;;;;;2.13;0.93;;;;;;;11.60;75.09;97991.66;4877844;28;102972;-76
2021/05/15 05:32:02;;;;;;;1.33;0.77;;;;;;;11.66;74.88;97979.69;4882276;28;103871;-76
2021/05/15 05:34:30;;;;;;;0.90;0.60;;;;;;;11.74;74.57;97977.25;4881868;28;105695;-76
2021/05/15 05:36:56;;;;;;;1.80;0.77;;;;;;;11.84;74.44;97970.19;4871057;28;102940;-76
2021/05/15 05:39:24;;;;;;;1.03;0.73;;;;;;;11.65;75.15;97967.44;4889444;28;103075;-75
2021/05/15 05:41:50;;;;;;;1.47;0.77;;;;;;;11.92;73.69;97970.34;4888889;28;104255;-76
2021/05/15 05:44:16;;;;;;;1.93;0.70;;;;;;;11.99;73.58;97967.94;4887946;28;105468;-76
2021/05/15 05:46:43;;;;;;;2.37;0.70;;;;;;;11.87;74.02;97979.66;4887590;28;103034;-76
2021/05/15 05:49:09;;;;;;;1.13;0.60;;;;;;;11.80;73.50;97974.06;4877962;28;102748;-76
2021/05/15 05:51:36;;;;;;;1.00;0.70;;;;;;;11.86;73.55;97975.31;4882211;28;103794;-76
2021/05/15 05:54:02;;;;;;;1.00;0.70;;;;;;;11.77;73.81;97970.84;4886272;28;104304;-76
2021/05/15 05:56:30;;;;;;;1.87;0.70;;;;;;;11.91;73.74;97971.28;4895479;28;102527;-76
2021/05/15 05:58:56;;;;;;;0.93;0.53;;;;;;;12.15;72.72;97974.38;4885206;28;103169;-76
2021/05/15 06:01:22;;;;;;;1.07;0.73;;;;;;;12.42;72.14;97980.81;4881173;28;106452;-76
2021/05/15 06:03:49;;;;;;;1.03;0.67;;;;;;;12.53;71.94;97978.88;4886395;28;104063;-76
2021/05/15 06:06:16;;;;;;;0.93;0.70;;;;;;;12.48;71.58;97974.97;4885525;28;103035;-76
2021/05/15 06:08:43;;;;;;;1.33;0.60;;;;;;;12.51;70.95;97974.69;4889089;28;102819;-75
2021/05/15 06:11:09;;;;;;;2.00;0.80;;;;;;;12.77;71.07;97973.13;4888619;28;104984;-75
2021/05/15 06:13:36;;;;;;;0.90;0.70;;;;;;;12.84;70.91;97971.56;4889185;28;104305;-77
2021/05/15 06:16:03;;;;;;;2.67;0.77;;;;;;;12.86;70.60;97964.31;4888647;28;103114;-76
2021/05/15 06:18:30;;;;;;;0.87;0.60;;;;;;;12.71;70.53;97960.44;4886971;28;104336;-75
2021/05/15 06:20:57;;;;;;;2.33;1.00;;;;;;;12.84;70.83;97966.28;4884009;28;108733;-76
2021/05/15 06:23:23;;;;;;;2.10;0.70;;;;;;;12.98;69.89;97959.69;4888205;28;103662;-76
2021/05/15 06:25:51;;;;;;;1.57;0.60;;;;;;;13.22;69.79;97954.78;4888502;28;103128;-77
2021/05/15 06:28:18;;;;;;;0.60;0.60;;;;;;;13.08;68.96;97956.06;4889094;28;103189;-78
2021/05/15 06:30:45;;;;;;;0.70;0.60;;;;;;;13.07;68.43;97959.69;4885610;28;104550;-76
2021/05/15 06:33:11;;;;;;;1.30;0.90;;;;;;;13.23;68.34;97959.94;4887631;28;103814;-77
2021/05/15 06:35:38;;;;;;;1.73;0.47;;;;;;;13.52;67.73;97956.31;4894595;28;103497;-76
2021/05/15 06:38:05;;;;;;;1.00;0.60;;;;;;;13.62;67.22;97951.78;4889811;28;103341;-74
2021/05/15 06:40:32;;;;;;;1.20;0.60;;;;;;;13.74;66.65;97956.75;4888154;28;103927;-74
2021/05/15 06:42:59;;;;;;;1.40;0.70;;;;;;;13.78;66.30;97939.53;4887983;28;104409;-74
2021/05/15 06:45:25;;;;;;;0.80;0.60;;;;;;;13.87;66.25;97938.66;4886291;28;103039;-75
2021/05/15 06:47:54;;;;;;;1.70;0.50;;;;;;;14.23;65.07;97936.84;4888066;28;103005;-75
2021/05/15 06:50:20;;;;;;;0.40;0.40;;;;;;;14.11;65.02;97937.25;4885927;28;105013;-75
2021/05/15 06:52:47;;;;;;;0.80;0.57;;;;;;;14.58;64.32;97944.00;4880366;28;103750;-74
2021/05/15 06:55:13;;;;;;;0.60;0.60;;;;;;;14.95;63.63;97938.47;4886226;28;103077;-75
2021/05/15 06:57:40;;;;;;;1.33;0.60;;;;;;;15.11;63.25;97943.88;4878966;28;102945;-75
2021/05/15 07:00:08;;;;;;;1.13;0.57;;;;;;;15.15;62.02;97945.25;4883588;28;105549;-75
2021/05/15 07:02:34;;;;;;;1.33;0.67;;;;;;;15.13;61.88;97946.41;4884639;28;103120;-75
2021/05/15 07:05:02;;;;;;;0.73;0.50;;;;;;;15.05;60.91;97940.03;4886558;28;102962;-74
2021/05/15 07:07:28;;;;;;;0.73;0.60;;;;;;;15.29;61.84;97942.00;4879067;28;103255;-75
2021/05/15 07:09:55;;;;;;;0.50;0.47;;;;;;;15.26;62.13;97942.31;4881102;28;104376;-75
2021/05/15 07:12:22;;;;;;;0.57;0.50;;;;;;;15.07;62.57;97945.22;4887204;28;109336;-74
2021/05/15 07:14:48;;;;;;;0.83;0.60;;;;;;;14.70;63.12;97939.28;4887507;28;103012;-75
2021/05/15 07:17:15;;;;;;;1.17;0.77;;;;;;;14.65;63.42;97936.25;4886840;28;102825;-76
2021/05/15 07:19:41;;;;;;;2.30;1.30;;;;;;;14.88;62.98;97929.44;4887355;28;103445;-75
2021/05/15 07:22:09;;;;;;;1.63;0.93;;;;;;;14.88;63.16;97937.41;4885400;28;103730;-75
2021/05/15 07:24:35;;;;;;;2.50;0.80;;;;;;;14.94;63.45;97931.47;4866456;28;103180;-74
2021/05/15 07:27:01;;;;;;;0.57;0.57;;;;;;;14.86;63.00;97939.41;4886461;28;103219;-73
2021/05/15 07:29:28;;;;;;;0.30;0.30;;;;;;;15.01;62.56;97932.53;4886049;28;104033;-74
2021/05/15 07:31:54;;;;;;;0.83;0.50;;;;;;;15.05;62.05;97936.53;4882162;28;103833;-78
2021/05/15 07:34:21;;;;;;;1.53;0.40;;;;;;;14.88;62.20;97937.41;4884581;28;103064;-73
2021/05/15 07:36:47;;;;;;;0.70;0.60;;;;;;;14.63;62.62;97932.91;4876311;28;102942;-73
2021/05/15 07:39:14;;;;;;;0.73;0.60;;;;;;;14.86;62.78;97928.75;4878533;28;106802;-75
2021/05/15 07:41:41;;;;;;;1.33;0.63;;;;;;;14.82;63.20;97927.44;4883641;28;103653;-77
2021/05/15 07:44:08;;;;;;;1.03;0.60;;;;;;;14.74;62.83;97922.84;4881755;28;103135;-78
2021/05/15 07:46:42;;;;;;;1.83;0.63;;;;;;;14.96;61.91;97926.84;4897472;28;102480;-78
2021/05/15 07:49:08;;;;;;;2.40;0.50;;;;;;;14.83;61.82;97923.75;4882933;28;103827;-76
2021/05/15 07:51:35;;;;;;;0.60;0.60;;;;;;;15.19;60.91;97914.66;4879565;28;104959;-74
2021/05/15 07:54:02;;;;;;;1.13;0.50;;;;;;;15.54;60.85;97908.38;4887355;28;103170;-74
2021/05/15 07:56:29;;;;;;;1.60;0.80;;;;;;;15.69;60.17;97906.75;4877814;28;102760;-72
2021/05/15 07:58:55;;;;;;;0.60;0.60;;;;;;;15.58;60.43;97918.53;4870330;28;105127;-75
2021/05/15 08:01:22;;;;;;;2.60;0.70;;;;;;;15.79;60.44;97906.63;4892687;28;105453;-74
2021/05/15 08:03:48;;;;;;;1.67;0.70;;;;;;;15.82;60.22;97908.97;4880411;28;103570;-74
2021/05/15 08:06:15;;;;;;;1.10;0.67;;;;;;;15.69;60.22;97912.06;4875759;28;103054;-74
2021/05/15 08:08:41;;;;;;;1.97;0.60;;;;;;;15.47;59.19;97910.84;4874404;23;104341;-73
2021/05/15 08:11:08;;;;;;;0.73;0.70;;;;;;;15.44;60.63;97908.47;4862023;28;103277;-73
2021/05/15 08:13:36;;;;;;;0.67;0.60;;;;;;;14.99;60.62;97923.84;4865284;28;102980;-74
2021/05/15 08:16:03;;;;;;;1.07;0.80;;;;;;;15.11;61.70;97914.63;4867919;28;102858;-72
2021/05/15 08:18:29;;;;;;;0.93;0.80;;;;;;;14.93;61.72;97921.84;4869595;28;104751;-72
2021/05/15 08:20:56;;;;;;;0.87;0.70;;;;;;;15.12;61.52;97921.63;4871735;28;104545;-73
2021/05/15 08:23:23;;;;;;;2.60;1.03;;;;;;;15.04;61.40;97921.59;4866244;28;102960;-72
2021/05/15 08:25:51;;;;;;;3.37;0.97;;;;;;;14.97;60.93;97909.88;4873147;28;103266;-75
2021/05/15 08:28:18;;;;;;;1.90;0.60;;;;;;;14.93;61.19;97913.88;4865766;28;104920;-73
2021/05/15 08:30:47;;;;;;;1.50;0.77;;;;;;;15.25;60.82;97902.56;4870334;28;103130;-72
2021/05/15 08:33:14;;;;;;;0.80;0.60;;;;;;;15.11;60.88;97911.97;4890907;28;103298;-72
2021/05/15 08:35:41;;;;;;;1.93;0.70;;;;;;;15.15;61.54;97908.00;4860034;28;103010;-71
2021/05/15 08:38:07;;;;;;;2.50;0.97;;;;;;;15.22;61.03;97906.38;4864107;28;103822;-74
2021/05/15 08:40:34;;;;;;;2.60;0.80;;;;;;;15.36;60.85;97907.59;4867108;28;105045;-72
2021/05/15 08:43:00;;;;;;;1.63;0.80;;;;;;;15.44;60.21;97907.63;4865134;28;102679;-72
2021/05/15 08:45:27;;;;;;;1.63;0.70;;;;;;;15.55;60.02;97905.53;4865449;28;104267;-72
2021/05/15 08:47:57;;;;;;;1.00;0.70;;;;;;;15.57;59.72;97897.41;4864412;28;103840;-72
2021/05/15 08:50:27;;;;;;;2.03;0.60;;;;;;;15.38;60.11;97893.13;4862522;28;103943;-72
2021/05/15 08:52:57;;;;;;;1.97;0.70;;;;;;;15.54;60.54;97893.25;4867806;28;103505;-72
2021/05/15 08:55:25;;;;;;;1.60;0.60;;;;;;;15.79;60.36;97895.97;4864145;28;103088;-72
2021/05/15 08:57:51;;;;;;;1.60;0.50;;;;;;;15.85;58.63;97896.16;4867288;28;110880;-73
2021/05/15 09:00:25;;;;;;;0.73;0.50;;;;;;;16.14;58.14;97890.41;4872723;28;103227;-74
2021/05/15 09:03:02;;;;;;;1.90;0.70;;;;;;;16.36;57.71;97895.06;4876729;28;102917;-75
2021/05/15 09:05:36;;;;;;;0.90;0.70;;;;;;;15.97;57.65;97894.84;4870607;28;103033;-74
2021/05/15 09:08:09;;;;;;;1.00;0.83;;;;;;;16.07;57.13;97887.53;4864042;28;104031;-75
2021/05/15 09:10:38;;;;;;;0.93;0.60;;;;;;;16.56;56.89;97885.75;4856465;28;105557;-74
2021/05/15 09:13:07;;;;;;;1.47;0.63;;;;;;;16.48;56.81;97888.38;4867639;28;103030;-74
2021/05/15 09:15:38;;;;;;;0.83;0.60;;;;;;;16.24;56.47;97891.06;4872643;28;105113;-75
2021/05/15 09:18:07;;;;;;;1.90;0.70;;;;;;;16.04;58.05;97890.53;4867457;28;103562;-75
2021/05/15 09:20:38;;;;;;;0.70;0.60;;;;;;;16.21;57.75;97878.91;4857998;28;105744;-75
2021/05/15 09:23:13;;;;;;;1.60;0.63;;;;;;;15.98;57.73;97874.38;4873241;28;102995;-75
2021/05/15 09:25:43;;;;;;;1.43;0.50;;;;;;;16.36;57.86;97883.56;4870540;28;103495;-75
2021/05/15 09:28:11;;;;;;;1.43;0.77;;;;;;;16.52;56.88;97879.06;4869635;28;103852;-75
2021/05/15 09:30:39;;;;;;;0.77;0.57;;;;;;;16.69;56.46;97872.75;4869912;28;103823;-75
2021/05/15 09:33:15;;;;;;;2.00;0.80;;;;;;;16.99;55.75;97867.69;4856587;28;102869;-76
2021/05/15 09:35:42;;;;;;;1.40;0.90;;;;;;;17.24;54.72;97863.94;4869878;28;102885;-76
2021/05/15 09:38:10;;;;;;;2.05;1.10;;;;;;;16.78;55.53;97863.75;4861594;28;103883;-76
2021/05/15 09:40:40;;;;;;;0.90;0.63;;;;;;;17.26;55.31;97861.94;4869777;28;104519;-75
2021/05/15 09:43:09;;;;;;;0.87;0.60;;;;;;;18.09;53.71;97862.19;4869211;28;102906;-76
2021/05/15 09:45:38;;;;;;;1.33;0.70;;;;;;;18.11;53.45;97854.81;4868989;28;102961;-76
2021/05/15 09:48:09;;;;;;;0.55;0.52;;;;;;;18.83;52.97;97840.00;4867940;28;103981;-76
2021/05/15 09:50:39;;;;;;;1.63;0.77;;;;;;;18.83;51.27;97848.88;4866543;28;103163;-76
2021/05/15 09:53:09;;;;;;;1.17;0.70;;;;;;;18.93;50.81;97841.41;4861286;28;103019;-76
2021/05/15 09:55:38;;;;;;;2.40;0.65;;;;;;;18.74;51.17;97833.91;4869332;28;102849;-77
2021/05/15 09:58:07;;;;;;;0.98;0.60;;;;;;;17.73;52.50;97832.53;4867898;28;103843;-77
2021/05/15 10:00:42;;;;;;;1.63;0.75;;;;;;;17.66;53.93;97827.06;4867552;28;105090;-76
2021/05/15 10:03:22;;;;;;;1.83;1.17;;;;;;;17.34;54.28;97825.38;4867562;28;102966;-75
2021/05/15 10:06:05;;;;;;;0.73;0.73;;;;;;;17.68;53.91;97818.88;4867580;28;103038;-75
2021/05/15 10:08:34;;;;;;;1.60;0.93;;;;;;;17.20;53.60;97817.25;4863598;28;103454;-76
2021/05/15 10:11:04;;;;;;;1.50;0.73;;;;;;;18.15;51.99;97810.69;4866738;28;103062;-76
2021/05/15 10:13:33;;;;;;;1.65;0.88;;;;;;;18.74;51.37;97809.00;4868913;28;103149;-77
2021/05/15 10:16:01;;;;;;;2.35;0.80;;;;;;;18.31;50.62;97806.03;4868892;28;103122;-75
2021/05/15 10:18:29;;;;;;;0.90;0.70;;;;;;;18.60;49.84;97799.94;4866473;28;105017;-76
2021/05/15 10:20:57;;;;;;;1.25;0.60;;;;;;;18.43;50.74;97793.06;4868154;28;105122;-76
2021/05/15 10:23:29;;;;;;;1.20;0.60;;;;;;;18.78;50.84;97791.56;4868099;28;102827;-75
2021/05/15 10:26:02;;;;;;;1.55;0.80;;;;;;;18.03;49.52;97785.38;4868134;28;102955;-76
2021/05/15 10:28:32;;;;;;;0.60;0.60;;;;;;;18.65;50.18;97778.81;4865732;28;103941;-76
2021/05/15 10:31:06;;;;;;;1.33;0.82;;;;;;;18.45;49.49;97780.31;4866442;28;104859;-76
2021/05/15 10:33:34;;;;;;;1.55;0.80;;;;;;;18.24;49.88;97777.53;4869534;28;103141;-77
2021/05/15 10:36:04;;;;;;;2.35;0.60;;;;;;;17.85;50.46;97778.50;4867762;28;102807;-77
2021/05/15 10:38:35;;;;;;;1.38;1.00;;;;;;;17.77;50.40;97753.69;4864844;28;105727;-76
2021/05/15 10:41:12;;;;;;;2.83;0.80;;;;;;;16.95;50.84;97762.31;4868037;28;103190;-76
2021/05/15 10:43:42;;;;;;;0.98;0.57;;;;;;;17.70;49.69;97755.41;4868014;28;103143;-76
2021/05/15 10:46:18;;;;;;;1.90;0.90;;;;;;;17.38;49.34;97756.41;4868661;28;102816;-77
2021/05/15 10:48:56;;;;;;;2.15;0.85;;;;;;;17.98;51.16;97745.84;4850481;28;106014;-76
2021/05/15 10:51:36;;;;;;;2.33;1.15;;;;;;;18.11;50.37;97745.22;4872514;28;103688;-78
2021/05/15 10:54:05;;;;;;;1.30;0.80;;;;;;;18.40;50.48;97737.28;4862923;28;102766;-77
2021/05/15 10:56:49;;;;;;;1.88;0.70;;;;;;;18.26;49.74;97738.06;4857119;28;102896;-77
2021/05/15 10:59:21;;;;;;;1.15;0.80;;;;;;;17.88;48.58;97738.06;4865960;28;103714;-77
2021/05/15 11:01:53;;;;;;;1.95;0.93;;;;;;;17.73;50.70;97731.88;4856105;28;103638;-75
2021/05/15 11:04:27;;;;;;;1.20;0.80;;;;;;;17.92;50.65;97731.38;4864343;28;103118;-76
2021/05/15 11:07:07;;;;;;;1.17;1.08;;;;;;;17.57;49.89;97729.28;4864524;28;103174;-77
2021/05/15 11:10:01;;;;;;;2.70;1.25;;;;;;;18.11;49.51;97729.19;4870986;28;103131;-78
2021/05/15 11:12:30;;;;;;;2.53;0.95;;;;;;;18.25;49.55;97715.84;4864486;28;106080;-76
2021/05/15 11:15:01;;;;;;;1.85;1.25;;;;;;;17.86;49.17;97721.41;4861811;28;103021;-78
2021/05/15 11:17:30;;;;;;;3.30;1.17;;;;;;;17.86;49.71;97713.38;4866446;28;103063;-77
2021/05/15 11:19:59;;;;;;;3.00;1.27;;;;;;;17.50;49.60;97714.97;4867256;28;103262;-76
2021/05/15 11:22:39;;;;;;;3.65;1.23;;;;;;;17.64;50.06;97716.91;4860877;28;104862;-76
2021/05/15 11:25:19;;;;;;;1.42;0.88;;;;;;;18.03;49.72;97716.75;4857855;28;103193;-79
2021/05/15 11:27:50;;;;;;;2.33;1.00;;;;;;;17.81;50.03;97709.59;4888795;23;102746;-73
2021/05/15 11:30:25;;;;;;;1.50;1.15;;;;;;;17.57;49.93;97710.59;4865827;28;103885;-73